Airfield :
LOGIN :

Register | Disclaimer

   EN    FR    IT 

 










Legend :    VFR   Marginal VFR   IFR   Intensive IFR   Very Intensive IFR
Visi :
Ceiling :
>= 8 km
>= 3000ft
5 to 8 km
1000 to 3000 ft
1500m to 5 km
500 to 1000 ft
800 to 1500m
200 to 500 ft
< 800m
< 200 ft
Symbols :   Thunderstorms  Fog  Heavy snow  Heavy precipitations  Wind > 20 kt
SIGMETs :     Misc.  Thunderstorms  Icing  Turbulence  Mountain Waves  Volcanic Ashes






- Airport Elevation : 31 ft
- IATA code : INV


EGPE - Inverness

CURRENT METAR :
  • 060550Z 21021KT 9999 FEW034 10/05 Q0996

EXPIRED METARs :
  • 060520Z 20012KT 9999 FEW045 09/05 Q0996
  • 060450Z AUTO 21017G27KT 9999 NCD 10/06 Q0995
  • 060420Z AUTO 21023G33KT 9999 FEW045/// 10/07 Q0995
  • 060350Z AUTO 21025G37KT 9999 -RA FEW024/// SCT037/// 10/07 Q0994

TAF TAF EGPE
Valid from the 06 at 06:00 until the 06 at 15:00 UTC


060459Z 0606/0615 22014KT 9999 FEW045
TEMPO 0606/0615 22018G28KT
PROB40
TEMPO 0606/0615 6000 RA SHRA
PROB30
TEMPO 0606/0610 23025G38KT
ATIS : +44 1667 464 255



MET'MAP, your aeronautical weather chart ! - Copyright ORBIFLY December 2007 - Disclaimer

ORBIFLY MET'MAP TEAM :

Programming & Development : Alexandra Zaïnal
Concept & original design : Baudouin d'Aumeries
Assistance for programming : Marc-Olivier Méhu
Technical & hardware support : Manuel Goepfert

Contact : metmap@orbifly.com




SOURCES & CREDITS :

   NOAA